Time;durP1;ratioP1;P1;durP2;ratioP2;P2;SDS_P1;SDS_P2;PMS_P1;PMS_P2;Temp;Humidity;BMP_temperature;BMP_pressure;BME280_temperature;BME280_humidity;BME280_pressure;Samples;Min_cycle;Max_cycle;Signal;HPM_P1;HPM_P2
2022/01/25 00:10:26;;;;;;;21.13;11.83;;;3.60;99.90;;;;;;8456764;27;20198;-64
2022/01/25 00:31:57;;;;;;;22.87;13.07;;;3.70;99.90;;;;;;8456641;27;20215;-65
2022/01/25 00:36:00;;;;;;;23.43;13.43;;;3.80;99.90;;;;;;8468749;27;20194;-64
2022/01/25 00:40:01;;;;;;;20.93;12.33;;;3.80;99.90;;;;;;8459913;27;20237;-64
2022/01/25 00:44:02;;;;;;;25.90;12.63;;;3.80;99.90;;;;;;8481229;27;20191;-64
2022/01/25 00:48:05;;;;;;;22.87;11.83;;;3.80;99.90;;;;;;8472300;27;20240;-64
2022/01/25 00:56:34;;;;;;;21.40;12.30;;;3.80;99.90;;;;;;8455359;27;20187;-66
2022/01/25 01:00:35;;;;;;;19.80;10.43;;;3.80;99.90;;;;;;8484779;27;20240;-64
2022/01/25 01:04:36;;;;;;;16.20;9.93;;;3.80;99.90;;;;;;8487359;27;20186;-64
2022/01/25 01:08:39;;;;;;;19.23;10.63;;;3.80;99.90;;;;;;8465935;27;20290;-65
2022/01/25 01:46:55;;;;;;;10.10;6.60;;;3.70;99.90;;;;;;8483127;27;20198;-65
2022/01/25 01:51:04;;;;;;;10.67;7.10;;;3.70;99.90;;;;;;8490669;27;20229;-64
2022/01/25 01:55:06;;;;;;;9.80;6.30;;;3.70;99.90;;;;;;8480676;27;20192;-64
2022/01/25 01:59:11;;;;;;;10.27;6.90;;;3.70;99.90;;;;;;8479148;27;20186;-64
2022/01/25 02:03:13;;;;;;;11.80;6.77;;;3.70;99.90;;;;;;8493309;27;20179;-64
2022/01/25 02:07:14;;;;;;;9.17;5.90;;;3.70;99.90;;;;;;8477912;27;20213;-64
2022/01/25 02:11:15;;;;;;;11.07;5.87;;;3.70;99.90;;;;;;8493595;27;20230;-65
2022/01/25 02:15:16;;;;;;;9.47;6.03;;;3.70;99.90;;;;;;8479568;27;20179;-64
2022/01/25 02:23:37;;;;;;;8.80;5.73;;;3.80;99.90;;;;;;8479155;27;20190;-65
2022/01/25 02:27:38;;;;;;;8.73;5.90;;;3.80;99.90;;;;;;8480810;27;20186;-64
2022/01/25 02:31:39;;;;;;;11.50;6.23;;;3.80;99.90;;;;;;8487346;27;20201;-64
2022/01/25 02:35:43;;;;;;;8.40;5.73;;;3.90;99.90;;;;;;8484399;27;20186;-65
2022/01/25 02:39:44;;;;;;;7.97;5.17;;;3.90;99.90;;;;;;8478256;27;20208;-65
2022/01/25 02:43:46;;;;;;;7.37;4.83;;;3.90;99.90;;;;;;8478474;27;20198;-65
2022/01/25 02:52:07;;;;;;;6.47;4.63;;;3.80;99.90;;;;;;8491834;27;20673;-64
2022/01/25 02:56:08;;;;;;;7.70;4.60;;;3.80;99.90;;;;;;8459228;27;20168;-64
2022/01/25 03:00:09;;;;;;;5.50;3.60;;;3.80;99.90;;;;;;8479443;27;20206;-64
2022/01/25 03:04:11;;;;;;;6.33;4.67;;;3.80;99.90;;;;;;8484164;27;20186;-65
2022/01/25 03:08:14;;;;;;;6.80;4.60;;;3.80;99.90;;;;;;8487284;27;20271;-65
2022/01/25 03:12:19;;;;;;;6.37;4.20;;;3.80;99.90;;;;;;8473815;27;20195;-65
2022/01/25 03:16:36;;;;;;;6.50;4.17;;;3.80;99.90;;;;;;8487870;27;20195;-69
2022/01/25 03:20:52;;;;;;;6.77;4.20;;;3.80;99.90;;;;;;8490497;27;20271;-65
2022/01/25 03:24:52;;;;;;;6.70;4.20;;;3.70;99.90;;;;;;8457253;27;20237;-64
2022/01/25 03:28:55;;;;;;;8.03;4.30;;;3.70;99.90;;;;;;8476686;27;20187;-64
2022/01/25 03:32:55;;;;;;;8.77;5.23;;;3.70;99.90;;;;;;8479091;27;20199;-64
2022/01/25 03:36:56;;;;;;;8.37;5.03;;;3.70;99.90;;;;;;8482957;27;20183;-64
2022/01/25 03:40:57;;;;;;;8.27;4.90;;;3.70;99.90;;;;;;8469793;27;20205;-65
2022/01/25 03:45:00;;;;;;;7.87;5.43;;;3.70;99.90;;;;;;8478798;27;20188;-64
2022/01/25 03:53:21;;;;;;;6.57;4.47;;;3.70;99.90;;;;;;8467322;27;20235;-65
2022/01/25 03:57:22;;;;;;;7.03;4.50;;;3.70;99.90;;;;;;8465863;27;20262;-64
2022/01/25 04:01:23;;;;;;;9.90;5.73;;;3.70;99.90;;;;;;8482394;27;20210;-66
2022/01/25 04:05:35;;;;;;;9.10;5.20;;;3.80;99.90;;;;;;8487542;27;20190;-65
2022/01/25 04:09:38;;;;;;;7.70;5.47;;;3.80;99.90;;;;;;8481974;27;20190;-65
2022/01/25 04:13:39;;;;;;;10.07;5.33;;;3.80;99.90;;;;;;8478707;27;20181;-65
2022/01/25 04:17:43;;;;;;;7.73;5.47;;;3.80;99.90;;;;;;8484846;27;20226;-65
2022/01/25 04:26:03;;;;;;;8.83;4.93;;;3.80;99.90;;;;;;8486964;27;20204;-65
2022/01/25 04:30:05;;;;;;;8.00;5.13;;;3.80;99.90;;;;;;8487482;27;20191;-65
2022/01/25 04:34:14;;;;;;;9.97;6.13;;;3.80;99.90;;;;;;8483251;27;20205;-70
2022/01/25 04:55:39;;;;;;;7.70;4.77;;;3.80;99.90;;;;;;8470210;27;20186;-65
2022/01/25 04:59:54;;;;;;;7.40;4.70;;;3.80;99.90;;;;;;8469841;27;20187;-65
2022/01/25 05:04:08;;;;;;;8.53;5.37;;;3.80;99.90;;;;;;8483214;27;20176;-64
2022/01/25 05:08:30;;;;;;;7.40;5.27;;;3.80;99.90;;;;;;8483334;27;20619;-64
2022/01/25 05:13:24;;;;;;;10.07;6.80;;;3.80;99.90;;;;;;8472840;27;20203;-65
2022/01/25 05:17:00;;;;;;;10.67;6.60;;;3.80;99.90;;;;;;8468837;27;20212;-64
2022/01/25 05:25:24;;;;;;;12.47;5.97;;;3.80;99.90;;;;;;8473988;27;20201;-65
2022/01/25 05:29:25;;;;;;;10.73;6.43;;;3.80;99.90;;;;;;8476303;27;20195;-65
2022/01/25 05:33:26;;;;;;;11.90;6.37;;;3.80;99.90;;;;;;8485088;28;20214;-65
2022/01/25 05:37:26;;;;;;;12.03;7.07;;;3.70;99.90;;;;;;8474151;28;20190;-66
2022/01/25 05:41:30;;;;;;;11.13;7.07;;;3.70;99.90;;;;;;8473620;27;20205;-67
2022/01/25 05:46:12;;;;;;;8.10;4.73;;;3.70;99.90;;;;;;8484378;28;20194;-65
2022/01/25 05:49:59;;;;;;;9.50;5.90;;;3.70;99.90;;;;;;8474262;28;20240;-65
2022/01/25 05:54:00;;;;;;;6.40;4.43;;;3.60;99.90;;;;;;8486169;27;20179;-65
2022/01/25 05:58:04;;;;;;;6.77;3.57;;;3.60;99.90;;;;;;8475541;28;20200;-65
2022/01/25 06:02:06;;;;;;;5.10;3.90;;;3.50;99.90;;;;;;8483285;28;20250;-74
2022/01/25 06:06:06;;;;;;;4.53;3.33;;;3.50;99.90;;;;;;8478704;27;20195;-65
2022/01/25 06:10:08;;;;;;;4.90;3.30;;;3.50;99.90;;;;;;8481572;27;20210;-65
2022/01/25 06:14:09;;;;;;;4.97;3.47;;;3.50;99.90;;;;;;8483438;27;20201;-66
2022/01/25 06:18:09;;;;;;;5.27;3.80;;;3.50;99.90;;;;;;8477058;27;20210;-65
2022/01/25 06:22:10;;;;;;;4.00;3.27;;;3.40;99.90;;;;;;8473098;27;20188;-66
2022/01/25 06:26:11;;;;;;;7.53;4.87;;;3.50;99.90;;;;;;8479611;27;20189;-66
2022/01/25 06:30:15;;;;;;;7.23;4.70;;;3.40;99.90;;;;;;8472267;27;20277;-66
2022/01/25 06:34:16;;;;;;;9.00;4.73;;;3.40;99.90;;;;;;8490300;27;20191;-65
2022/01/25 06:38:17;;;;;;;8.17;4.20;;;3.30;99.90;;;;;;8479970;27;20175;-65
2022/01/25 06:42:18;;;;;;;9.03;5.33;;;3.30;99.90;;;;;;8478975;27;20198;-65
2022/01/25 06:46:18;;;;;;;10.50;5.47;;;3.30;99.90;;;;;;8476163;27;20214;-66
2022/01/25 06:50:22;;;;;;;13.53;5.43;;;3.20;99.90;;;;;;8487743;27;20258;-65
2022/01/25 06:54:23;;;;;;;9.20;5.60;;;3.20;99.90;;;;;;8483608;27;20191;-66
2022/01/25 06:58:24;;;;;;;10.53;5.77;;;3.20;99.90;;;;;;8482714;27;20211;-66
2022/01/25 07:02:25;;;;;;;9.37;6.47;;;3.20;99.90;;;;;;8490518;27;20194;-66
2022/01/25 07:06:25;;;;;;;12.40;6.57;;;3.20;99.90;;;;;;8489099;27;20195;-66
2022/01/25 07:10:26;;;;;;;12.67;7.37;;;3.20;99.90;;;;;;8454681;27;20207;-66
2022/01/25 07:14:27;;;;;;;9.93;6.67;;;3.20;99.90;;;;;;8482543;27;20191;-65
2022/01/25 07:18:28;;;;;;;9.83;6.40;;;3.20;99.90;;;;;;8491382;27;20206;-66
2022/01/25 07:22:29;;;;;;;10.07;6.83;;;3.20;99.90;;;;;;8484896;27;20187;-66
2022/01/25 07:26:29;;;;;;;10.40;6.60;;;3.10;99.90;;;;;;8471307;27;20186;-66
2022/01/25 07:30:30;;;;;;;12.87;7.73;;;3.10;99.90;;;;;;8488247;27;20400;-66
2022/01/25 07:34:31;;;;;;;13.17;6.70;;;3.20;99.90;;;;;;8485120;27;20194;-66
2022/01/25 07:38:32;;;;;;;14.90;9.03;;;3.20;99.90;;;;;;8469383;27;20181;-66
2022/01/25 07:42:36;;;;;;;14.87;8.83;;;3.30;99.90;;;;;;8468044;27;20195;-66
2022/01/25 07:46:37;;;;;;;16.70;9.33;;;3.30;99.90;;;;;;8480911;27;20182;-67
2022/01/25 07:50:38;;;;;;;14.83;9.13;;;3.30;99.90;;;;;;8487037;27;20235;-66
2022/01/25 07:54:39;;;;;;;16.30;7.77;;;3.30;99.90;;;;;;8469634;27;20275;-66
2022/01/25 07:58:40;;;;;;;16.53;7.90;;;3.30;99.90;;;;;;8481508;27;20216;-71
2022/01/25 08:02:41;;;;;;;14.93;7.93;;;3.30;99.90;;;;;;8481783;27;20183;-66
2022/01/25 08:06:43;;;;;;;13.70;8.40;;;3.30;99.90;;;;;;8473162;27;20584;-67
2022/01/25 08:10:43;;;;;;;16.63;9.80;;;3.30;99.90;;;;;;8486017;27;20329;-65
2022/01/25 08:14:44;;;;;;;14.50;8.47;;;3.30;99.90;;;;;;8481213;27;20215;-67
2022/01/25 08:18:45;;;;;;;13.63;7.83;;;3.30;99.90;;;;;;8472574;27;20199;-68
2022/01/25 08:22:46;;;;;;;9.17;6.70;;;3.20;99.90;;;;;;8479049;27;20180;-67
2022/01/25 08:26:48;;;;;;;9.33;5.57;;;3.00;99.90;;;;;;8460103;27;20215;-65
2022/01/25 08:30:48;;;;;;;8.00;5.23;;;2.90;99.90;;;;;;8471414;27;20196;-65
2022/01/25 08:34:50;;;;;;;9.03;5.33;;;2.80;99.90;;;;;;8463624;27;20202;-67
2022/01/25 08:38:51;;;;;;;10.03;5.73;;;2.60;99.90;;;;;;8471895;27;20203;-65
2022/01/25 08:42:52;;;;;;;11.80;7.07;;;2.60;99.90;;;;;;8472658;27;20194;-66
2022/01/25 08:46:52;;;;;;;9.90;5.93;;;2.60;99.90;;;;;;8472761;27;20175;-67
2022/01/25 08:50:53;;;;;;;9.53;5.93;;;2.50;99.90;;;;;;8486952;27;20245;-66
2022/01/25 08:54:54;;;;;;;10.57;6.57;;;2.60;99.90;;;;;;8464213;27;20195;-66
2022/01/25 08:58:55;;;;;;;13.87;7.27;;;2.60;99.90;;;;;;8474606;27;20226;-66
2022/01/25 09:02:59;;;;;;;14.23;7.60;;;2.60;99.90;;;;;;8486235;27;20174;-66
2022/01/25 09:07:00;;;;;;;16.53;8.23;;;2.50;99.90;;;;;;8482771;27;20190;-66
2022/01/25 09:11:04;;;;;;;16.23;7.87;;;2.50;99.90;;;;;;8482494;27;20203;-69
2022/01/25 09:15:05;;;;;;;16.93;8.33;;;2.50;99.90;;;;;;8486798;27;20244;-68
2022/01/25 09:19:06;;;;;;;17.10;7.17;;;2.50;99.90;;;;;;8464797;27;20205;-68
2022/01/25 09:23:07;;;;;;;16.40;7.83;;;2.50;99.90;;;;;;8480282;27;20186;-68
2022/01/25 09:27:08;;;;;;;18.33;9.03;;;2.50;99.90;;;;;;8476612;27;20195;-66
2022/01/25 09:31:09;;;;;;;15.40;7.73;;;2.50;99.90;;;;;;8476920;27;20199;-67
2022/01/25 09:35:10;;;;;;;16.13;8.60;;;2.50;99.90;;;;;;8460128;28;20189;-66
2022/01/25 09:39:11;;;;;;;17.27;8.77;;;2.50;99.90;;;;;;8485164;27;20171;-66
2022/01/25 09:43:12;;;;;;;17.33;8.67;;;2.50;99.90;;;;;;8483237;27;20214;-67
2022/01/25 09:47:13;;;;;;;15.40;8.17;;;2.50;99.90;;;;;;8478893;28;20187;-66
2022/01/25 09:51:14;;;;;;;20.00;9.43;;;2.50;99.90;;;;;;8476384;28;20264;-67
2022/01/25 09:55:19;;;;;;;16.90;9.27;;;2.50;99.90;;;;;;8464191;27;20172;-66
2022/01/25 09:59:20;;;;;;;18.30;9.97;;;2.50;99.90;;;;;;8487074;27;20183;-66
2022/01/25 10:03:26;;;;;;;18.20;8.87;;;2.60;99.90;;;;;;8482333;28;20206;-66
2022/01/25 10:07:30;;;;;;;15.50;8.70;;;2.60;99.90;;;;;;8487478;27;20194;-67
2022/01/25 10:11:37;;;;;;;14.93;8.30;;;2.80;99.90;;;;;;8488202;27;20234;-66
2022/01/25 10:15:39;;;;;;;15.43;9.30;;;2.90;99.90;;;;;;8489539;27;20218;-66
2022/01/25 10:19:41;;;;;;;15.00;7.93;;;2.90;99.90;;;;;;8484347;27;20185;-66
2022/01/25 10:24:05;;;;;;;13.57;8.53;;;3.00;99.90;;;;;;8491014;27;20228;-66
2022/01/25 10:28:13;;;;;;;17.87;8.20;;;3.20;99.90;;;;;;8490249;27;20210;-66
2022/01/25 10:32:15;;;;;;;13.37;7.70;;;3.10;99.90;;;;;;8484088;27;20309;-67
2022/01/25 10:36:20;;;;;;;15.63;7.07;;;3.10;99.90;;;;;;8487359;27;20175;-66
2022/01/25 10:40:54;;;;;;;12.50;7.43;;;3.20;99.90;;;;;;8458789;27;20205;-66
2022/01/25 10:44:59;;;;;;;12.67;7.13;;;3.10;99.90;;;;;;8465029;27;20312;-66
2022/01/25 10:49:03;;;;;;;13.60;7.97;;;3.10;99.90;;;;;;8484359;27;20177;-66
2022/01/25 10:53:16;;;;;;;12.53;7.80;;;3.30;99.90;;;;;;8483670;27;20207;-67
2022/01/25 10:57:19;;;;;;;11.13;5.70;;;3.40;99.90;;;;;;8468463;27;20175;-66
2022/01/25 11:01:35;;;;;;;10.07;5.93;;;3.40;99.90;;;;;;8487458;27;20301;-67
2022/01/25 11:05:45;;;;;;;9.67;4.57;;;3.40;99.90;;;;;;8491032;27;20175;-66
2022/01/25 11:09:47;;;;;;;8.00;4.80;;;3.60;99.90;;;;;;8461675;27;20195;-66
2022/01/25 11:13:53;;;;;;;7.37;4.60;;;3.80;99.90;;;;;;8484407;27;20195;-67
2022/01/25 11:17:54;;;;;;;10.60;5.40;;;3.80;99.90;;;;;;8484325;27;20195;-67
2022/01/25 11:21:58;;;;;;;8.13;4.60;;;4.00;99.90;;;;;;8484429;27;20503;-67
2022/01/25 11:26:02;;;;;;;9.50;5.03;;;4.10;99.90;;;;;;8456631;27;20176;-67
2022/01/25 11:30:11;;;;;;;8.03;4.57;;;4.00;99.90;;;;;;8470760;27;20185;-67
2022/01/25 11:34:14;;;;;;;6.90;4.57;;;3.90;99.90;;;;;;8487854;27;20177;-67
2022/01/25 11:38:15;;;;;;;8.40;4.60;;;3.90;99.90;;;;;;8463482;27;20179;-67
2022/01/25 11:42:23;;;;;;;9.90;5.10;;;4.10;99.90;;;;;;8463420;27;20183;-67
2022/01/25 11:46:24;;;;;;;10.03;5.93;;;4.10;99.90;;;;;;8476247;27;20262;-66
2022/01/25 11:50:36;;;;;;;9.27;5.60;;;4.00;99.90;;;;;;8476195;27;20251;-67
2022/01/25 11:54:37;;;;;;;9.93;5.60;;;3.80;99.90;;;;;;8464553;27;20178;-68
2022/01/25 11:58:38;;;;;;;9.70;5.80;;;3.80;99.90;;;;;;8468448;27;20209;-68
2022/01/25 12:02:50;;;;;;;9.13;4.90;;;3.90;99.90;;;;;;8483667;27;20171;-68
2022/01/25 12:07:00;;;;;;;8.13;4.50;;;4.10;99.90;;;;;;8477256;27;20266;-67
2022/01/25 12:11:21;;;;;;;5.77;3.97;;;4.00;99.90;;;;;;8485914;27;20282;-68
2022/01/25 12:15:22;;;;;;;7.47;4.40;;;3.90;99.90;;;;;;8470738;27;20289;-68
2022/01/25 12:19:47;;;;;;;7.80;4.07;;;3.90;99.90;;;;;;8488851;27;20171;-68
2022/01/25 12:23:51;;;;;;;7.00;4.40;;;4.10;99.90;;;;;;8479576;27;20227;-68
2022/01/25 12:28:03;;;;;;;7.07;3.77;;;4.20;99.90;;;;;;8485238;27;20175;-67
2022/01/25 12:32:20;;;;;;;5.30;3.67;;;4.10;99.90;;;;;;8478842;27;20199;-68
2022/01/25 12:36:35;;;;;;;9.00;4.20;;;4.10;99.90;;;;;;8478070;27;20180;-68
2022/01/25 12:40:41;;;;;;;7.67;4.23;;;4.10;99.90;;;;;;8485051;27;20228;-67
2022/01/25 12:44:42;;;;;;;6.77;3.90;;;3.90;99.90;;;;;;8475453;27;20539;-68
2022/01/25 12:48:49;;;;;;;7.77;5.27;;;3.80;99.90;;;;;;8475802;27;20740;-67
2022/01/25 12:52:50;;;;;;;5.07;4.30;;;3.80;99.90;;;;;;8475066;27;20289;-68
2022/01/25 12:56:51;;;;;;;5.43;3.93;;;3.90;99.90;;;;;;8474626;27;20182;-68
2022/01/25 13:00:55;;;;;;;6.60;3.77;;;3.90;99.90;;;;;;8467038;27;20289;-66
2022/01/25 13:04:55;;;;;;;6.40;3.57;;;3.90;99.90;;;;;;8459450;27;20291;-68
2022/01/25 13:09:40;;;;;;;5.83;3.67;;;3.90;99.90;;;;;;8474836;27;20600;-68
2022/01/25 13:13:57;;;;;;;4.83;3.47;;;3.90;99.90;;;;;;8463058;27;20207;-66
2022/01/25 13:18:08;;;;;;;5.10;3.67;;;3.90;99.90;;;;;;8470906;27;20233;-68
2022/01/25 13:22:14;;;;;;;5.87;3.53;;;3.80;99.90;;;;;;8481223;27;20226;-68
2022/01/25 13:26:16;;;;;;;8.70;4.07;;;3.80;99.90;;;;;;8452786;28;20201;-68
2022/01/25 13:30:41;;;;;;;9.00;5.33;;;3.80;99.90;;;;;;8485089;27;20238;-67
2022/01/25 13:34:43;;;;;;;8.93;5.73;;;3.70;99.90;;;;;;8485907;28;20189;-67
2022/01/25 13:38:46;;;;;;;7.73;4.30;;;3.70;99.90;;;;;;8457894;27;20170;-68
2022/01/25 13:43:18;;;;;;;7.53;4.50;;;3.70;99.90;;;;;;8471835;27;20194;-68
2022/01/25 13:47:17;;;;;;;6.33;4.27;;;3.70;99.90;;;;;;8483493;27;20211;-68
2022/01/25 13:51:21;;;;;;;7.47;4.63;;;3.70;99.90;;;;;;8494294;27;20232;-68
2022/01/25 13:55:22;;;;;;;10.67;5.07;;;3.60;99.90;;;;;;8485719;27;20266;-68
2022/01/25 13:59:25;;;;;;;10.10;5.53;;;3.60;99.90;;;;;;8478431;27;20191;-68
2022/01/25 14:03:44;;;;;;;9.97;6.23;;;3.60;99.90;;;;;;8493544;27;20185;-67
2022/01/25 14:07:54;;;;;;;7.70;4.17;;;3.50;99.90;;;;;;8477937;27;20191;-67
2022/01/25 14:24:54;;;;;;;6.33;4.00;;;3.60;99.90;;;;;;8488731;27;20191;-70
2022/01/25 14:29:07;;;;;;;6.73;4.30;;;3.70;99.90;;;;;;8491023;27;20221;-65
2022/01/25 14:33:14;;;;;;;9.97;4.13;;;3.70;99.90;;;;;;8492093;27;20203;-65
2022/01/25 14:37:15;;;;;;;5.57;3.93;;;3.70;99.90;;;;;;8484822;27;20183;-65
2022/01/25 14:41:18;;;;;;;5.90;3.47;;;3.70;99.90;;;;;;8490062;27;20202;-65
2022/01/25 14:45:22;;;;;;;5.30;3.60;;;3.70;99.90;;;;;;8481909;27;20190;-67
2022/01/25 14:49:30;;;;;;;5.60;3.80;;;3.70;99.90;;;;;;8483536;27;20291;-65
2022/01/25 14:53:31;;;;;;;5.90;3.40;;;3.60;99.90;;;;;;8479138;27;20214;-67
2022/01/25 14:57:49;;;;;;;4.67;3.40;;;3.60;99.90;;;;;;8485325;27;20224;-68
2022/01/25 15:02:05;;;;;;;5.53;3.33;;;3.50;99.90;;;;;;8491869;27;20235;-67
2022/01/25 15:06:06;;;;;;;5.33;3.47;;;3.50;99.90;;;;;;8489542;27;20190;-67
2022/01/25 15:10:22;;;;;;;4.83;3.37;;;3.30;99.90;;;;;;8415784;27;20594;-68
2022/01/25 15:14:34;;;;;;;6.33;3.80;;;3.20;99.90;;;;;;8422640;28;20241;-67
2022/01/25 15:18:38;;;;;;;5.77;3.40;;;3.30;99.90;;;;;;8440405;28;20200;-68
2022/01/25 15:22:43;;;;;;;4.73;3.27;;;3.30;99.90;;;;;;8431177;28;20184;-68
2022/01/25 15:26:49;;;;;;;5.40;3.23;;;3.30;99.90;;;;;;8409084;28;20223;-68
2022/01/25 15:30:50;;;;;;;4.87;2.97;;;3.30;99.90;;;;;;8425909;28;20267;-67
2022/01/25 15:34:51;;;;;;;6.77;4.10;;;3.20;99.90;;;;;;8414111;28;20206;-68
2022/01/25 15:38:53;;;;;;;8.03;4.17;;;3.20;99.90;;;;;;8439670;28;20168;-67
2022/01/25 15:42:54;;;;;;;7.17;3.83;;;3.20;99.90;;;;;;8434497;28;20204;-68
2022/01/25 15:46:58;;;;;;;8.87;3.77;;;3.20;99.90;;;;;;8436861;28;20212;-67
2022/01/25 15:51:00;;;;;;;7.80;4.10;;;3.10;99.90;;;;;;8420373;28;20176;-68
2022/01/25 15:55:01;;;;;;;9.77;5.13;;;3.00;99.90;;;;;;8418890;28;20193;-67
2022/01/25 15:59:02;;;;;;;8.00;4.23;;;3.00;99.90;;;;;;8412541;28;20204;-68
2022/01/25 16:03:03;;;;;;;8.60;4.77;;;3.00;99.90;;;;;;8433290;28;20177;-68
2022/01/25 16:07:05;;;;;;;7.67;4.27;;;3.00;99.90;;;;;;8429770;28;20239;-67
2022/01/25 16:11:14;;;;;;;9.37;4.93;;;3.00;99.90;;;;;;8419776;28;20172;-68
2022/01/25 16:15:15;;;;;;;8.23;4.17;;;2.90;99.90;;;;;;8416621;28;20217;-66
2022/01/25 16:19:17;;;;;;;8.23;4.90;;;2.90;99.90;;;;;;8404937;28;20173;-67
2022/01/25 16:23:18;;;;;;;7.43;4.33;;;2.80;99.90;;;;;;8391084;28;20200;-67
2022/01/25 16:27:19;;;;;;;7.63;4.90;;;2.70;99.90;;;;;;8388509;28;20200;-68
2022/01/25 16:31:29;;;;;;;10.57;5.37;;;2.70;99.90;;;;;;8399012;28;20181;-66
2022/01/25 16:35:30;;;;;;;7.57;4.57;;;2.70;99.90;;;;;;8390879;28;20193;-67
2022/01/25 16:39:31;;;;;;;9.03;4.57;;;2.70;99.90;;;;;;8422240;28;20186;-67
2022/01/25 16:43:32;;;;;;;8.67;5.73;;;2.70;99.90;;;;;;8411141;28;20236;-67
2022/01/25 16:47:34;;;;;;;12.67;8.57;;;2.70;99.90;;;;;;8409821;28;20325;-67
2022/01/25 16:51:35;;;;;;;10.67;5.57;;;2.80;99.90;;;;;;8396587;28;20220;-67
2022/01/25 16:55:36;;;;;;;11.57;5.50;;;2.80;99.90;;;;;;8390714;28;20239;-67
2022/01/25 16:59:38;;;;;;;7.57;4.87;;;2.80;99.90;;;;;;8389445;28;20217;-67
2022/01/25 17:03:39;;;;;;;8.63;5.23;;;2.80;99.90;;;;;;8389458;28;20199;-66
2022/01/25 17:07:40;;;;;;;8.57;5.07;;;2.80;99.90;;;;;;8388790;28;20216;-66
2022/01/25 17:11:40;;;;;;;9.20;5.30;;;2.80;99.90;;;;;;8396301;28;20181;-67
2022/01/25 17:15:41;;;;;;;10.80;5.80;;;2.70;99.90;;;;;;8393136;28;20235;-66
2022/01/25 17:19:44;;;;;;;11.90;5.73;;;2.70;99.90;;;;;;8422596;28;20170;-67
2022/01/25 17:23:46;;;;;;;8.40;5.33;;;2.70;99.90;;;;;;8405645;28;20180;-67
2022/01/25 17:27:47;;;;;;;10.73;5.63;;;2.70;99.90;;;;;;8383724;28;20205;-67
2022/01/25 17:31:48;;;;;;;11.20;5.80;;;2.70;99.90;;;;;;8386362;28;20212;-66
2022/01/25 17:35:50;;;;;;;9.47;5.67;;;2.70;99.90;;;;;;8400189;28;20217;-67
2022/01/25 17:39:51;;;;;;;8.20;4.87;;;2.70;99.90;;;;;;8390276;28;20223;-66
2022/01/25 17:43:52;;;;;;;9.67;4.97;;;2.70;99.90;;;;;;8407873;28;20181;-66
2022/01/25 17:47:53;;;;;;;8.13;4.83;;;2.70;99.90;;;;;;8395359;28;20215;-66
2022/01/25 17:51:56;;;;;;;10.13;5.33;;;2.70;99.90;;;;;;8384281;28;20185;-66
2022/01/25 17:55:59;;;;;;;8.60;5.57;;;2.80;99.90;;;;;;8396166;28;20181;-65
2022/01/25 18:00:00;;;;;;;9.90;5.23;;;2.70;99.90;;;;;;8390477;28;20189;-65
2022/01/25 18:04:02;;;;;;;11.30;5.93;;;2.70;99.90;;;;;;8414939;28;20188;-64
2022/01/25 18:08:04;;;;;;;9.33;5.50;;;2.70;99.90;;;;;;8402668;28;20211;-66
2022/01/25 18:12:05;;;;;;;9.27;5.20;;;2.70;99.90;;;;;;8394938;28;20177;-66
2022/01/25 18:16:07;;;;;;;11.83;5.50;;;2.70;99.90;;;;;;8393180;28;20260;-65
2022/01/25 18:20:10;;;;;;;8.30;5.10;;;2.70;99.90;;;;;;8387176;28;20192;-65
2022/01/25 18:24:26;;;;;;;12.00;6.13;;;2.70;99.90;;;;;;8409910;28;20312;-66
2022/01/25 18:28:27;;;;;;;9.77;5.50;;;2.70;99.90;;;;;;8406387;28;20204;-66
2022/01/25 18:32:32;;;;;;;9.57;5.47;;;2.70;99.90;;;;;;8385802;28;20189;-66
2022/01/25 18:36:34;;;;;;;9.27;5.47;;;2.70;99.90;;;;;;8379853;28;20237;-64
2022/01/25 18:40:35;;;;;;;8.47;4.93;;;2.70;99.90;;;;;;8415246;28;20181;-65
2022/01/25 18:44:36;;;;;;;10.60;5.60;;;2.70;99.90;;;;;;8384170;28;20199;-66
2022/01/25 18:48:40;;;;;;;9.20;5.40;;;2.70;99.90;;;;;;8395181;28;20237;-65
2022/01/25 18:52:42;;;;;;;9.30;5.80;;;2.70;99.90;;;;;;8385052;28;20188;-66
2022/01/25 18:56:43;;;;;;;9.97;5.00;;;2.70;99.90;;;;;;8389545;28;20181;-66
2022/01/25 19:00:44;;;;;;;8.93;5.43;;;2.70;99.90;;;;;;8398276;28;20191;-65
2022/01/25 19:04:47;;;;;;;9.90;5.60;;;2.70;99.90;;;;;;8395527;28;20184;-66
2022/01/25 19:08:49;;;;;;;10.50;5.30;;;2.60;99.90;;;;;;8387834;28;20216;-65
2022/01/25 19:12:52;;;;;;;9.03;5.47;;;2.60;99.90;;;;;;8375137;28;20197;-66
2022/01/25 19:16:55;;;;;;;11.37;5.40;;;2.60;99.90;;;;;;8405212;28;20209;-65
2022/01/25 19:21:00;;;;;;;8.83;5.07;;;2.60;99.90;;;;;;8394801;28;20185;-66
2022/01/25 19:25:04;;;;;;;10.87;6.00;;;2.60;99.90;;;;;;8387833;28;20188;-66
2022/01/25 19:29:05;;;;;;;10.80;5.50;;;2.60;99.90;;;;;;8385988;28;20270;-65
2022/01/25 19:33:07;;;;;;;8.97;4.67;;;2.60;99.90;;;;;;8385729;28;20185;-69
2022/01/25 19:37:10;;;;;;;9.67;5.20;;;2.60;99.90;;;;;;8391355;28;20262;-67
2022/01/25 19:41:13;;;;;;;8.47;4.97;;;2.50;99.90;;;;;;8388677;28;20204;-66
2022/01/25 19:45:14;;;;;;;9.20;5.27;;;2.50;99.90;;;;;;8397474;28;20185;-67
2022/01/25 19:49:16;;;;;;;9.73;5.40;;;2.50;99.90;;;;;;8399315;28;20212;-66
2022/01/25 19:53:21;;;;;;;10.23;5.50;;;2.50;99.90;;;;;;8395788;28;20189;-67
2022/01/25 19:57:30;;;;;;;10.83;5.13;;;2.60;99.90;;;;;;8389374;28;20185;-66
2022/01/25 20:01:39;;;;;;;8.53;4.73;;;2.50;99.90;;;;;;8397127;28;20181;-66
2022/01/25 20:05:40;;;;;;;6.27;4.63;;;2.50;99.90;;;;;;8402400;28;20197;-66
2022/01/25 20:09:44;;;;;;;10.93;5.20;;;2.50;99.90;;;;;;8397581;28;20217;-65
2022/01/25 20:13:46;;;;;;;9.27;4.90;;;2.60;99.90;;;;;;8406083;28;20208;-67
2022/01/25 20:17:47;;;;;;;7.80;4.30;;;2.60;99.90;;;;;;8403069;28;20207;-67
2022/01/25 20:21:57;;;;;;;10.43;5.13;;;2.60;99.90;;;;;;8419394;28;20197;-66
2022/01/25 20:26:28;;;;;;;8.00;4.17;;;2.60;99.90;;;;;;8421168;28;20495;-65
2022/01/25 20:30:36;;;;;;;8.43;4.43;;;2.60;99.90;;;;;;8397780;28;20221;-65
2022/01/25 20:34:55;;;;;;;8.77;5.40;;;2.60;99.90;;;;;;8389293;28;20191;-65
2022/01/25 20:38:56;;;;;;;8.33;5.50;;;2.60;99.90;;;;;;8413722;28;20187;-65
2022/01/25 20:42:58;;;;;;;12.53;6.03;;;2.70;99.90;;;;;;8405272;28;20246;-66
2022/01/25 20:46:59;;;;;;;10.97;5.73;;;2.60;99.90;;;;;;8407223;28;20223;-65
2022/01/25 20:51:00;;;;;;;11.63;5.13;;;2.60;99.90;;;;;;8380748;28;20196;-67
2022/01/25 20:55:04;;;;;;;11.53;5.60;;;2.60;99.90;;;;;;8376851;28;20226;-66
2022/01/25 20:59:05;;;;;;;9.77;5.27;;;2.60;99.90;;;;;;8400835;28;20188;-66
2022/01/25 21:03:21;;;;;;;10.77;5.57;;;2.60;99.90;;;;;;8381538;28;20321;-65
2022/01/25 21:07:26;;;;;;;11.83;5.83;;;2.60;99.90;;;;;;8402495;28;20209;-65
2022/01/25 21:11:27;;;;;;;9.53;5.50;;;2.60;99.90;;;;;;8390523;28;20276;-66
2022/01/25 21:15:28;;;;;;;11.60;6.27;;;2.60;99.90;;;;;;8394525;28;20219;-66
2022/01/25 21:19:31;;;;;;;10.20;5.67;;;2.60;99.90;;;;;;8401913;28;20197;-66
2022/01/25 21:23:32;;;;;;;10.13;6.10;;;2.70;99.90;;;;;;8396238;28;20185;-66
2022/01/25 21:27:33;;;;;;;10.60;5.50;;;2.60;99.90;;;;;;8395867;28;20295;-66
2022/01/25 21:31:34;;;;;;;11.93;6.23;;;2.70;99.90;;;;;;8395006;28;20196;-66
2022/01/25 21:35:38;;;;;;;13.57;6.97;;;2.70;99.90;;;;;;8395994;28;20216;-66
2022/01/25 21:39:40;;;;;;;10.03;6.47;;;2.70;99.90;;;;;;8416299;28;20192;-65
2022/01/25 21:43:42;;;;;;;13.07;6.33;;;2.70;99.90;;;;;;8394589;28;20285;-66
2022/01/25 21:47:44;;;;;;;12.27;7.00;;;2.60;99.90;;;;;;8406711;28;20200;-65
2022/01/25 21:51:45;;;;;;;9.80;5.67;;;2.70;99.90;;;;;;8399120;28;20187;-66
2022/01/25 21:55:46;;;;;;;11.97;6.27;;;2.60;99.90;;;;;;8387582;28;20181;-66
2022/01/25 21:59:47;;;;;;;9.90;6.00;;;2.60;99.90;;;;;;8385351;28;20189;-66
2022/01/25 22:04:01;;;;;;;10.83;5.80;;;2.60;99.90;;;;;;8393262;28;20189;-66
2022/01/25 22:08:06;;;;;;;10.03;5.60;;;2.60;99.90;;;;;;8395191;28;20210;-65
2022/01/25 22:12:16;;;;;;;7.87;5.13;;;2.60;99.90;;;;;;8395656;28;20197;-66
2022/01/25 22:16:17;;;;;;;9.63;5.30;;;2.60;99.90;;;;;;8382310;28;20277;-70
2022/01/25 22:20:18;;;;;;;9.57;5.60;;;2.60;99.90;;;;;;8386447;28;20189;-66
2022/01/25 22:24:19;;;;;;;13.03;6.63;;;2.70;99.90;;;;;;8402685;28;20196;-65
2022/01/25 22:28:23;;;;;;;8.40;5.17;;;2.60;99.90;;;;;;8386924;28;20209;-67
2022/01/25 22:32:24;;;;;;;10.47;5.80;;;2.70;99.90;;;;;;8393413;28;20197;-66
2022/01/25 22:36:25;;;;;;;10.80;6.10;;;2.70;99.90;;;;;;8402590;28;20189;-66
2022/01/25 22:40:27;;;;;;;10.63;6.60;;;2.60;99.90;;;;;;8387097;28;20192;-65
2022/01/25 22:44:28;;;;;;;11.93;6.80;;;2.60;99.90;;;;;;8397919;28;20189;-65
2022/01/25 22:48:35;;;;;;;9.93;5.93;;;2.70;99.90;;;;;;8403039;28;20209;-66
2022/01/25 22:52:37;;;;;;;9.53;6.13;;;2.60;99.90;;;;;;8394155;28;20182;-65
2022/01/25 22:56:37;;;;;;;12.40;6.13;;;2.60;99.90;;;;;;8386526;28;20196;-65
2022/01/25 23:00:41;;;;;;;9.70;5.90;;;2.60;99.90;;;;;;8405134;28;20378;-68
2022/01/25 23:04:42;;;;;;;9.87;6.10;;;2.60;99.90;;;;;;8413949;28;20181;-64
2022/01/25 23:08:46;;;;;;;13.63;6.00;;;2.60;99.90;;;;;;8385952;28;20208;-65
2022/01/25 23:17:07;;;;;;;12.10;6.80;;;2.50;99.90;;;;;;8394746;28;20203;-65
2022/01/25 23:21:08;;;;;;;12.97;7.60;;;2.40;99.90;;;;;;8390734;28;20323;-66